sensor_id;sensor_type;location;lat;lon;timestamp;pressure;altitude;pressure_sealevel;temperature;humidity
77410;BME280;66481;51.332;22.804;2023-05-20T00:03:56;100609.50;;;9.85;100.00
77410;BME280;66481;51.332;22.804;2023-05-20T00:07:57;100617.25;;;9.72;100.00
77410;BME280;66481;51.332;22.804;2023-05-20T00:11:59;100620.47;;;9.62;100.00
77410;BME280;66481;51.332;22.804;2023-05-20T00:16:01;100616.25;;;9.59;100.00
77410;BME280;66481;51.332;22.804;2023-05-20T00:20:02;100614.50;;;9.58;100.00
77410;BME280;66481;51.332;22.804;2023-05-20T00:24:05;100616.91;;;9.63;100.00
77410;BME280;66481;51.332;22.804;2023-05-20T00:28:06;100619.56;;;9.63;100.00
77410;BME280;66481;51.332;22.804;2023-05-20T00:32:07;100607.28;;;9.62;100.00
77410;BME280;66481;51.332;22.804;2023-05-20T00:36:08;100604.38;;;9.66;100.00
77410;BME280;66481;51.332;22.804;2023-05-20T00:40:10;100597.13;;;9.70;100.00
77410;BME280;66481;51.332;22.804;2023-05-20T00:44:11;100594.31;;;9.73;100.00
77410;BME280;66481;51.332;22.804;2023-05-20T00:48:12;100596.81;;;9.76;100.00
77410;BME280;66481;51.332;22.804;2023-05-20T00:52:13;100603.84;;;9.75;100.00
77410;BME280;66481;51.332;22.804;2023-05-20T00:56:15;100609.41;;;9.71;100.00
77410;BME280;66481;51.332;22.804;2023-05-20T01:00:17;100601.16;;;9.61;100.00
77410;BME280;66481;51.332;22.804;2023-05-20T01:04:18;100600.38;;;9.59;100.00
77410;BME280;66481;51.332;22.804;2023-05-20T01:08:21;100593.91;;;9.49;100.00
77410;BME280;66481;51.332;22.804;2023-05-20T01:12:28;100597.91;;;9.40;100.00
77410;BME280;66481;51.332;22.804;2023-05-20T01:16:31;100595.66;;;9.32;100.00
77410;BME280;66481;51.332;22.804;2023-05-20T01:20:34;100597.28;;;9.19;100.00
77410;BME280;66481;51.332;22.804;2023-05-20T01:24:35;100596.00;;;9.10;100.00
77410;BME280;66481;51.332;22.804;2023-05-20T01:28:36;100598.16;;;9.02;100.00
77410;BME280;66481;51.332;22.804;2023-05-20T01:32:47;100600.28;;;8.95;100.00
77410;BME280;66481;51.332;22.804;2023-05-20T01:36:50;100599.97;;;8.84;100.00
77410;BME280;66481;51.332;22.804;2023-05-20T01:40:52;100593.63;;;8.88;100.00
77410;BME280;66481;51.332;22.804;2023-05-20T01:44:54;100595.09;;;8.76;100.00
77410;BME280;66481;51.332;22.804;2023-05-20T01:48:55;100602.34;;;8.73;100.00
77410;BME280;66481;51.332;22.804;2023-05-20T01:52:56;100595.34;;;8.72;100.00
77410;BME280;66481;51.332;22.804;2023-05-20T01:56:57;100593.66;;;8.71;100.00
77410;BME280;66481;51.332;22.804;2023-05-20T02:00:57;100590.94;;;8.72;100.00
77410;BME280;66481;51.332;22.804;2023-05-20T02:04:59;100585.13;;;8.65;100.00
77410;BME280;66481;51.332;22.804;2023-05-20T02:09:00;100588.69;;;8.64;100.00
77410;BME280;66481;51.332;22.804;2023-05-20T02:13:01;100586.44;;;8.57;100.00
77410;BME280;66481;51.332;22.804;2023-05-20T02:17:02;100597.22;;;8.52;100.00
77410;BME280;66481;51.332;22.804;2023-05-20T02:21:04;100603.19;;;8.56;100.00
77410;BME280;66481;51.332;22.804;2023-05-20T02:25:05;100603.66;;;8.64;100.00
77410;BME280;66481;51.332;22.804;2023-05-20T02:29:06;100596.13;;;8.56;100.00
77410;BME280;66481;51.332;22.804;2023-05-20T02:33:07;100600.78;;;8.51;100.00
77410;BME280;66481;51.332;22.804;2023-05-20T02:37:09;100594.03;;;8.45;100.00
77410;BME280;66481;51.332;22.804;2023-05-20T02:41:10;100603.75;;;8.45;100.00
77410;BME280;66481;51.332;22.804;2023-05-20T02:45:11;100597.53;;;8.46;100.00
77410;BME280;66481;51.332;22.804;2023-05-20T02:49:12;100615.22;;;8.44;100.00
77410;BME280;66481;51.332;22.804;2023-05-20T02:53:13;100607.84;;;8.51;100.00
77410;BME280;66481;51.332;22.804;2023-05-20T02:57:13;100602.97;;;8.60;100.00
77410;BME280;66481;51.332;22.804;2023-05-20T03:01:17;100594.88;;;8.81;100.00
77410;BME280;66481;51.332;22.804;2023-05-20T03:05:18;100592.44;;;8.94;100.00
77410;BME280;66481;51.332;22.804;2023-05-20T03:09:19;100599.63;;;9.08;100.00
77410;BME280;66481;51.332;22.804;2023-05-20T03:13:20;100595.25;;;9.24;100.00
77410;BME280;66481;51.332;22.804;2023-05-20T03:17:21;100593.09;;;9.31;100.00
77410;BME280;66481;51.332;22.804;2023-05-20T03:21:22;100592.00;;;9.35;100.00
77410;BME280;66481;51.332;22.804;2023-05-20T03:25:23;100588.69;;;9.47;100.00
77410;BME280;66481;51.332;22.804;2023-05-20T03:29:25;100599.19;;;9.65;100.00
77410;BME280;66481;51.332;22.804;2023-05-20T03:33:26;100596.78;;;10.38;100.00
77410;BME280;66481;51.332;22.804;2023-05-20T03:37:28;100602.97;;;10.53;100.00
77410;BME280;66481;51.332;22.804;2023-05-20T03:41:29;100610.72;;;11.01;100.00
77410;BME280;66481;51.332;22.804;2023-05-20T03:45:30;100609.53;;;11.62;96.69
77410;BME280;66481;51.332;22.804;2023-05-20T03:49:33;100612.88;;;11.93;96.50
77410;BME280;66481;51.332;22.804;2023-05-20T03:53:36;100617.50;;;11.90;96.27
77410;BME280;66481;51.332;22.804;2023-05-20T03:57:37;100621.91;;;11.91;96.29
77410;BME280;66481;51.332;22.804;2023-05-20T04:01:38;100622.66;;;11.93;97.28
77410;BME280;66481;51.332;22.804;2023-05-20T04:05:39;100620.31;;;12.28;96.22
77410;BME280;66481;51.332;22.804;2023-05-20T04:09:40;100611.50;;;12.93;91.71
77410;BME280;66481;51.332;22.804;2023-05-20T04:13:41;100626.03;;;12.62;93.25
77410;BME280;66481;51.332;22.804;2023-05-20T04:17:42;100625.84;;;13.42;92.81
77410;BME280;66481;51.332;22.804;2023-05-20T04:21:47;100613.16;;;14.79;91.53
77410;BME280;66481;51.332;22.804;2023-05-20T04:25:48;100610.38;;;15.49;85.46
77410;BME280;66481;51.332;22.804;2023-05-20T04:29:50;100614.34;;;15.66;84.07
77410;BME280;66481;51.332;22.804;2023-05-20T04:33:52;100618.84;;;16.95;78.40
77410;BME280;66481;51.332;22.804;2023-05-20T04:37:55;100617.41;;;17.52;77.57
77410;BME280;66481;51.332;22.804;2023-05-20T04:41:56;100609.50;;;18.69;70.46
77410;BME280;66481;51.332;22.804;2023-05-20T04:45:57;100606.78;;;19.36;69.11
77410;BME280;66481;51.332;22.804;2023-05-20T04:49:59;100610.72;;;20.15;66.93
77410;BME280;66481;51.332;22.804;2023-05-20T04:54:00;100601.88;;;20.41;63.38
77410;BME280;66481;51.332;22.804;2023-05-20T04:58:01;100601.09;;;19.77;64.28
77410;BME280;66481;51.332;22.804;2023-05-20T05:02:02;100592.22;;;19.66;63.62
77410;BME280;66481;51.332;22.804;2023-05-20T05:06:03;100601.28;;;20.11;63.89
77410;BME280;66481;51.332;22.804;2023-05-20T05:10:04;100600.22;;;19.21;64.81
77410;BME280;66481;51.332;22.804;2023-05-20T05:14:06;100613.28;;;18.96;65.32
77410;BME280;66481;51.332;22.804;2023-05-20T05:18:07;100598.72;;;19.64;65.44
77410;BME280;66481;51.332;22.804;2023-05-20T05:22:09;100603.50;;;19.98;63.72
77410;BME280;66481;51.332;22.804;2023-05-20T05:26:10;100612.03;;;19.00;65.89
77410;BME280;66481;51.332;22.804;2023-05-20T05:30:13;100602.03;;;19.30;66.57
77410;BME280;66481;51.332;22.804;2023-05-20T05:34:15;100593.13;;;19.57;64.06
77410;BME280;66481;51.332;22.804;2023-05-20T05:38:17;100592.94;;;19.31;64.71
77410;BME280;66481;51.332;22.804;2023-05-20T05:42:17;100604.03;;;19.83;66.32
77410;BME280;66481;51.332;22.804;2023-05-20T05:46:18;100598.91;;;20.08;62.92
77410;BME280;66481;51.332;22.804;2023-05-20T05:50:19;100612.06;;;19.56;65.10
77410;BME280;66481;51.332;22.804;2023-05-20T05:54:20;100605.50;;;20.32;62.99
77410;BME280;66481;51.332;22.804;2023-05-20T05:58:21;100608.72;;;20.97;59.70
77410;BME280;66481;51.332;22.804;2023-05-20T06:02:22;100612.94;;;21.34;61.14
77410;BME280;66481;51.332;22.804;2023-05-20T06:06:24;100615.69;;;20.64;61.40
77410;BME280;66481;51.332;22.804;2023-05-20T06:10:25;100614.94;;;20.72;59.61
77410;BME280;66481;51.332;22.804;2023-05-20T06:14:26;100627.56;;;20.79;59.69
77410;BME280;66481;51.332;22.804;2023-05-20T06:18:27;100613.41;;;21.64;57.25
77410;BME280;66481;51.332;22.804;2023-05-20T06:22:28;100620.19;;;20.81;59.36
77410;BME280;66481;51.332;22.804;2023-05-20T06:26:29;100615.47;;;21.70;56.79
77410;BME280;66481;51.332;22.804;2023-05-20T06:30:31;100608.16;;;22.13;57.91
77410;BME280;66481;51.332;22.804;2023-05-20T06:34:33;100610.75;;;22.48;55.20
77410;BME280;66481;51.332;22.804;2023-05-20T06:38:37;100603.13;;;22.68;55.25
77410;BME280;66481;51.332;22.804;2023-05-20T06:42:38;100598.22;;;22.80;54.97
77410;BME280;66481;51.332;22.804;2023-05-20T06:46:40;100598.88;;;22.98;55.41
77410;BME280;66481;51.332;22.804;2023-05-20T06:50:41;100599.34;;;23.58;52.42
77410;BME280;66481;51.332;22.804;2023-05-20T06:54:42;100601.59;;;23.86;52.11
77410;BME280;66481;51.332;22.804;2023-05-20T06:58:43;100596.66;;;23.89;52.43
77410;BME280;66481;51.332;22.804;2023-05-20T07:02:44;100607.91;;;24.24;51.08
77410;BME280;66481;51.332;22.804;2023-05-20T07:06:45;100607.84;;;25.23;49.65
77410;BME280;66481;51.332;22.804;2023-05-20T07:10:47;100603.88;;;27.00;46.47
77410;BME280;66481;51.332;22.804;2023-05-20T07:14:48;100601.66;;;28.13;41.37
77410;BME280;66481;51.332;22.804;2023-05-20T07:18:49;100597.03;;;28.01;42.95
77410;BME280;66481;51.332;22.804;2023-05-20T07:22:51;100603.56;;;27.51;43.30
77410;BME280;66481;51.332;22.804;2023-05-20T07:26:52;100600.56;;;26.76;47.24
77410;BME280;66481;51.332;22.804;2023-05-20T07:30:53;100594.56;;;27.57;43.08
77410;BME280;66481;51.332;22.804;2023-05-20T07:34:54;100586.84;;;27.61;43.94
77410;BME280;66481;51.332;22.804;2023-05-20T07:38:55;100584.84;;;26.65;48.27
77410;BME280;66481;51.332;22.804;2023-05-20T07:42:57;100580.03;;;27.30;43.26
77410;BME280;66481;51.332;22.804;2023-05-20T07:46:58;100578.91;;;27.66;45.85
77410;BME280;66481;51.332;22.804;2023-05-20T07:51:00;100574.00;;;27.97;44.53
77410;BME280;66481;51.332;22.804;2023-05-20T07:55:01;100574.66;;;28.32;43.09
77410;BME280;66481;51.332;22.804;2023-05-20T07:59:03;100567.34;;;28.66;42.28
77410;BME280;66481;51.332;22.804;2023-05-20T08:03:04;100569.66;;;28.62;42.99
77410;BME280;66481;51.332;22.804;2023-05-20T08:07:07;100579.22;;;28.98;40.11
77410;BME280;66481;51.332;22.804;2023-05-20T08:11:08;100572.75;;;27.99;44.88
77410;BME280;66481;51.332;22.804;2023-05-20T08:15:10;100577.38;;;28.12;45.37
77410;BME280;66481;51.332;22.804;2023-05-20T08:19:11;100582.09;;;27.76;44.34
77410;BME280;66481;51.332;22.804;2023-05-20T08:23:12;100584.63;;;26.95;46.80
77410;BME280;66481;51.332;22.804;2023-05-20T08:27:13;100583.84;;;26.73;45.90
77410;BME280;66481;51.332;22.804;2023-05-20T08:31:14;100591.75;;;25.66;48.21
77410;BME280;66481;51.332;22.804;2023-05-20T08:35:17;100585.69;;;26.44;48.52
77410;BME280;66481;51.332;22.804;2023-05-20T08:39:18;100580.16;;;27.15;47.78
77410;BME280;66481;51.332;22.804;2023-05-20T08:43:21;100583.94;;;26.36;46.59
77410;BME280;66481;51.332;22.804;2023-05-20T08:47:23;100583.34;;;26.19;47.60
77410;BME280;66481;51.332;22.804;2023-05-20T08:51:26;100573.97;;;26.43;50.88
77410;BME280;66481;51.332;22.804;2023-05-20T08:55:37;100573.13;;;26.64;47.83
77410;BME280;66481;51.332;22.804;2023-05-20T08:59:42;100573.97;;;26.43;49.63
77410;BME280;66481;51.332;22.804;2023-05-20T09:03:47;100577.66;;;25.93;49.26
77410;BME280;66481;51.332;22.804;2023-05-20T09:07:48;100572.19;;;25.71;49.48
77410;BME280;66481;51.332;22.804;2023-05-20T09:11:49;100565.13;;;26.56;49.82
77410;BME280;66481;51.332;22.804;2023-05-20T09:15:50;100549.75;;;26.98;49.07
77410;BME280;66481;51.332;22.804;2023-05-20T09:19:52;100559.06;;;27.24;48.53
77410;BME280;66481;51.332;22.804;2023-05-20T09:23:53;100554.22;;;27.61;46.26
77410;BME280;66481;51.332;22.804;2023-05-20T09:27:57;100553.78;;;27.16;47.28
77410;BME280;66481;51.332;22.804;2023-05-20T09:32:00;100567.97;;;26.48;49.85
77410;BME280;66481;51.332;22.804;2023-05-20T09:36:03;100557.13;;;26.26;48.51
77410;BME280;66481;51.332;22.804;2023-05-20T09:40:06;100562.31;;;25.63;48.60
77410;BME280;66481;51.332;22.804;2023-05-20T09:44:10;100568.22;;;24.39;52.76
77410;BME280;66481;51.332;22.804;2023-05-20T09:48:12;100570.25;;;24.23;54.50
77410;BME280;66481;51.332;22.804;2023-05-20T09:52:17;100565.91;;;24.36;52.92
77410;BME280;66481;51.332;22.804;2023-05-20T09:56:19;100559.31;;;24.92;51.92
77410;BME280;66481;51.332;22.804;2023-05-20T10:00:22;100568.91;;;24.94;50.24
77410;BME280;66481;51.332;22.804;2023-05-20T10:04:24;100548.63;;;25.20;48.18
77410;BME280;66481;51.332;22.804;2023-05-20T10:21:17;100550.31;;;24.91;48.65
77410;BME280;66481;51.332;22.804;2023-05-20T10:25:27;100548.72;;;24.82;47.05
77410;BME280;66481;51.332;22.804;2023-05-20T10:29:28;100554.34;;;24.81;48.31
77410;BME280;66481;51.332;22.804;2023-05-20T10:33:41;100545.22;;;25.26;48.66
77410;BME280;66481;51.332;22.804;2023-05-20T10:37:43;100542.66;;;24.65;47.76
77410;BME280;66481;51.332;22.804;2023-05-20T10:42:07;100543.59;;;25.32;49.06
77410;BME280;66481;51.332;22.804;2023-05-20T10:46:16;100531.47;;;24.68;50.41
77410;BME280;66481;51.332;22.804;2023-05-20T10:50:39;100537.53;;;24.70;47.62
77410;BME280;66481;51.332;22.804;2023-05-20T10:58:54;100532.72;;;23.42;57.54
77410;BME280;66481;51.332;22.804;2023-05-20T11:02:56;100538.91;;;22.55;57.88
77410;BME280;66481;51.332;22.804;2023-05-20T11:06:58;100531.66;;;22.23;58.36
77410;BME280;66481;51.332;22.804;2023-05-20T11:10:59;100524.94;;;22.43;59.68
77410;BME280;66481;51.332;22.804;2023-05-20T11:15:01;100534.53;;;22.46;58.85
77410;BME280;66481;51.332;22.804;2023-05-20T11:19:03;100526.41;;;22.54;55.38
77410;BME280;66481;51.332;22.804;2023-05-20T11:23:04;100529.44;;;22.51;58.01
77410;BME280;66481;51.332;22.804;2023-05-20T11:27:06;100521.34;;;22.59;56.04
77410;BME280;66481;51.332;22.804;2023-05-20T11:31:08;100523.75;;;22.29;56.38
77410;BME280;66481;51.332;22.804;2023-05-20T11:35:24;100516.34;;;22.31;56.67
77410;BME280;66481;51.332;22.804;2023-05-20T11:39:30;100519.28;;;22.78;56.73
77410;BME280;66481;51.332;22.804;2023-05-20T11:43:32;100520.44;;;22.91;58.03
77410;BME280;66481;51.332;22.804;2023-05-20T11:47:33;100522.06;;;22.37;59.45
77410;BME280;66481;51.332;22.804;2023-05-20T11:51:34;100511.78;;;22.15;60.98
77410;BME280;66481;51.332;22.804;2023-05-20T11:56:03;100511.94;;;22.22;62.40
77410;BME280;66481;51.332;22.804;2023-05-20T12:00:05;100512.31;;;22.36;59.18
77410;BME280;66481;51.332;22.804;2023-05-20T12:04:11;100514.47;;;22.40;60.12
77410;BME280;66481;51.332;22.804;2023-05-20T12:08:16;100518.53;;;22.28;57.30
77410;BME280;66481;51.332;22.804;2023-05-20T12:12:17;100510.88;;;22.72;56.38
77410;BME280;66481;51.332;22.804;2023-05-20T12:16:20;100506.75;;;23.01;58.35
77410;BME280;66481;51.332;22.804;2023-05-20T12:20:23;100498.75;;;23.16;58.69
77410;BME280;66481;51.332;22.804;2023-05-20T12:24:24;100503.66;;;23.21;56.54
77410;BME280;66481;51.332;22.804;2023-05-20T12:28:25;100498.63;;;23.09;55.51
77410;BME280;66481;51.332;22.804;2023-05-20T12:32:26;100495.84;;;23.26;55.09
77410;BME280;66481;51.332;22.804;2023-05-20T12:36:27;100492.88;;;23.04;55.30
77410;BME280;66481;51.332;22.804;2023-05-20T12:40:29;100487.47;;;23.04;55.25
77410;BME280;66481;51.332;22.804;2023-05-20T12:44:31;100478.13;;;23.23;57.78
77410;BME280;66481;51.332;22.804;2023-05-20T12:48:32;100479.97;;;23.31;55.52
77410;BME280;66481;51.332;22.804;2023-05-20T12:52:34;100472.13;;;23.91;51.95
77410;BME280;66481;51.332;22.804;2023-05-20T12:56:35;100466.78;;;23.82;49.83
77410;BME280;66481;51.332;22.804;2023-05-20T13:00:36;100457.31;;;23.32;52.77
77410;BME280;66481;51.332;22.804;2023-05-20T13:04:37;100453.13;;;23.30;52.88
77410;BME280;66481;51.332;22.804;2023-05-20T13:08:38;100453.59;;;23.10;52.29
77410;BME280;66481;51.332;22.804;2023-05-20T13:12:39;100444.16;;;23.60;53.40
77410;BME280;66481;51.332;22.804;2023-05-20T13:16:45;100436.50;;;23.87;51.69
77410;BME280;66481;51.332;22.804;2023-05-20T13:20:47;100443.66;;;23.80;53.72
77410;BME280;66481;51.332;22.804;2023-05-20T13:24:48;100436.41;;;23.57;54.74
77410;BME280;66481;51.332;22.804;2023-05-20T13:28:49;100426.22;;;23.13;52.57
77410;BME280;66481;51.332;22.804;2023-05-20T13:32:50;100416.97;;;23.07;52.87
77410;BME280;66481;51.332;22.804;2023-05-20T13:36:51;100421.06;;;23.73;55.15
77410;BME280;66481;51.332;22.804;2023-05-20T13:40:52;100416.19;;;23.91;52.72
77410;BME280;66481;51.332;22.804;2023-05-20T13:44:54;100417.78;;;23.86;48.12
77410;BME280;66481;51.332;22.804;2023-05-20T13:48:55;100408.13;;;23.45;52.05
77410;BME280;66481;51.332;22.804;2023-05-20T13:52:56;100404.09;;;23.18;53.68
77410;BME280;66481;51.332;22.804;2023-05-20T13:56:57;100405.88;;;23.25;50.32
77410;BME280;66481;51.332;22.804;2023-05-20T14:00:58;100405.56;;;23.20;53.15
77410;BME280;66481;51.332;22.804;2023-05-20T14:04:59;100412.66;;;22.90;51.73
77410;BME280;66481;51.332;22.804;2023-05-20T14:09:01;100412.53;;;22.36;53.42
77410;BME280;66481;51.332;22.804;2023-05-20T14:13:02;100409.00;;;22.19;53.02
77410;BME280;66481;51.332;22.804;2023-05-20T14:17:03;100405.13;;;22.29;51.60
77410;BME280;66481;51.332;22.804;2023-05-20T14:21:04;100408.13;;;22.43;56.50
77410;BME280;66481;51.332;22.804;2023-05-20T14:25:06;100412.81;;;22.49;53.81
77410;BME280;66481;51.332;22.804;2023-05-20T14:29:07;100407.97;;;22.20;53.04
77410;BME280;66481;51.332;22.804;2023-05-20T14:33:09;100417.44;;;22.07;53.03
77410;BME280;66481;51.332;22.804;2023-05-20T14:37:10;100404.63;;;22.09;54.39
77410;BME280;66481;51.332;22.804;2023-05-20T14:41:12;100416.41;;;22.16;54.54
77410;BME280;66481;51.332;22.804;2023-05-20T14:45:12;100417.41;;;22.24;51.83
77410;BME280;66481;51.332;22.804;2023-05-20T14:49:13;100420.09;;;22.24;55.35
77410;BME280;66481;51.332;22.804;2023-05-20T14:53:15;100413.03;;;22.14;53.87
77410;BME280;66481;51.332;22.804;2023-05-20T14:57:16;100419.97;;;22.01;55.42
77410;BME280;66481;51.332;22.804;2023-05-20T15:01:18;100411.53;;;22.04;53.52
77410;BME280;66481;51.332;22.804;2023-05-20T15:05:19;100403.78;;;22.01;56.30
77410;BME280;66481;51.332;22.804;2023-05-20T15:09:20;100407.00;;;21.88;54.81
77410;BME280;66481;51.332;22.804;2023-05-20T15:13:21;100395.06;;;21.74;53.74
77410;BME280;66481;51.332;22.804;2023-05-20T15:17:22;100392.69;;;21.63;52.90
77410;BME280;66481;51.332;22.804;2023-05-20T15:21:23;100397.41;;;21.60;56.80
77410;BME280;66481;51.332;22.804;2023-05-20T15:25:24;100399.78;;;21.55;58.03
77410;BME280;66481;51.332;22.804;2023-05-20T15:29:25;100399.94;;;21.46;55.65
77410;BME280;66481;51.332;22.804;2023-05-20T15:33:26;100396.25;;;21.47;58.50
77410;BME280;66481;51.332;22.804;2023-05-20T15:37:28;100386.63;;;21.44;57.34
77410;BME280;66481;51.332;22.804;2023-05-20T15:41:30;100382.75;;;21.30;55.17
77410;BME280;66481;51.332;22.804;2023-05-20T15:45:32;100376.31;;;21.23;56.32
77410;BME280;66481;51.332;22.804;2023-05-20T15:49:33;100368.41;;;21.13;56.40
77410;BME280;66481;51.332;22.804;2023-05-20T15:53:34;100373.44;;;21.08;57.68
77410;BME280;66481;51.332;22.804;2023-05-20T15:57:38;100369.75;;;21.01;56.21
77410;BME280;66481;51.332;22.804;2023-05-20T16:01:46;100370.34;;;20.87;58.00
77410;BME280;66481;51.332;22.804;2023-05-20T16:05:50;100380.97;;;20.80;58.18
77410;BME280;66481;51.332;22.804;2023-05-20T16:09:51;100372.34;;;20.76;58.61
77410;BME280;66481;51.332;22.804;2023-05-20T16:13:54;100373.84;;;20.71;58.28
77410;BME280;66481;51.332;22.804;2023-05-20T16:17:56;100367.28;;;20.65;59.21
77410;BME280;66481;51.332;22.804;2023-05-20T16:21:58;100370.13;;;20.63;58.02
77410;BME280;66481;51.332;22.804;2023-05-20T16:26:00;100372.06;;;20.53;58.74
77410;BME280;66481;51.332;22.804;2023-05-20T16:30:02;100366.81;;;20.43;59.37
77410;BME280;66481;51.332;22.804;2023-05-20T16:34:03;100365.63;;;20.38;60.09
77410;BME280;66481;51.332;22.804;2023-05-20T16:38:04;100363.75;;;20.30;60.46
77410;BME280;66481;51.332;22.804;2023-05-20T16:42:06;100371.28;;;20.26;61.58
77410;BME280;66481;51.332;22.804;2023-05-20T16:46:09;100369.22;;;20.20;61.73
77410;BME280;66481;51.332;22.804;2023-05-20T16:50:12;100367.88;;;20.16;63.26
77410;BME280;66481;51.332;22.804;2023-05-20T16:54:13;100366.97;;;20.07;63.13
77410;BME280;66481;51.332;22.804;2023-05-20T16:58:14;100372.09;;;19.92;63.25
77410;BME280;66481;51.332;22.804;2023-05-20T17:02:15;100375.03;;;19.81;66.14
77410;BME280;66481;51.332;22.804;2023-05-20T17:06:16;100372.97;;;19.75;66.20
77410;BME280;66481;51.332;22.804;2023-05-20T17:10:18;100366.81;;;19.65;66.50
77410;BME280;66481;51.332;22.804;2023-05-20T17:14:19;100374.56;;;19.50;68.32
77410;BME280;66481;51.332;22.804;2023-05-20T17:18:20;100374.66;;;19.58;67.44
77410;BME280;66481;51.332;22.804;2023-05-20T17:22:21;100379.63;;;19.53;66.67
77410;BME280;66481;51.332;22.804;2023-05-20T17:26:22;100370.94;;;19.33;67.50
77410;BME280;66481;51.332;22.804;2023-05-20T17:30:23;100370.41;;;19.29;65.76
77410;BME280;66481;51.332;22.804;2023-05-20T17:34:26;100374.22;;;19.09;66.21
77410;BME280;66481;51.332;22.804;2023-05-20T17:38:27;100370.50;;;18.92;67.68
77410;BME280;66481;51.332;22.804;2023-05-20T17:42:28;100371.00;;;18.77;68.09
77410;BME280;66481;51.332;22.804;2023-05-20T17:46:30;100375.47;;;18.59;68.75
77410;BME280;66481;51.332;22.804;2023-05-20T17:50:31;100375.16;;;18.34;68.16
77410;BME280;66481;51.332;22.804;2023-05-20T17:54:33;100381.38;;;18.25;67.23
77410;BME280;66481;51.332;22.804;2023-05-20T17:58:34;100375.69;;;18.00;67.93
77410;BME280;66481;51.332;22.804;2023-05-20T18:02:35;100369.34;;;17.82;67.46
77410;BME280;66481;51.332;22.804;2023-05-20T18:06:38;100381.19;;;17.70;67.14
77410;BME280;66481;51.332;22.804;2023-05-20T18:10:39;100376.16;;;17.47;68.07
77410;BME280;66481;51.332;22.804;2023-05-20T18:14:40;100379.81;;;17.07;69.68
77410;BME280;66481;51.332;22.804;2023-05-20T18:18:41;100373.31;;;17.00;69.38
77410;BME280;66481;51.332;22.804;2023-05-20T18:22:42;100375.19;;;16.68;70.77
77410;BME280;66481;51.332;22.804;2023-05-20T18:26:47;100386.63;;;16.40;71.94
77410;BME280;66481;51.332;22.804;2023-05-20T18:30:48;100385.00;;;16.27;72.34
77410;BME280;66481;51.332;22.804;2023-05-20T18:34:49;100399.69;;;16.12;72.67
77410;BME280;66481;51.332;22.804;2023-05-20T18:38:50;100409.00;;;15.96;73.64
77410;BME280;66481;51.332;22.804;2023-05-20T18:42:51;100418.31;;;15.81;75.28
77410;BME280;66481;51.332;22.804;2023-05-20T18:46:52;100415.69;;;15.70;74.59
77410;BME280;66481;51.332;22.804;2023-05-20T18:50:54;100408.72;;;15.57;75.08
77410;BME280;66481;51.332;22.804;2023-05-20T18:54:56;100410.78;;;15.54;75.34
77410;BME280;66481;51.332;22.804;2023-05-20T18:58:58;100403.25;;;15.27;75.61
77410;BME280;66481;51.332;22.804;2023-05-20T19:03:00;100405.59;;;15.09;77.02
77410;BME280;66481;51.332;22.804;2023-05-20T19:07:02;100403.91;;;15.08;76.58
77410;BME280;66481;51.332;22.804;2023-05-20T19:11:03;100402.91;;;15.20;74.98
77410;BME280;66481;51.332;22.804;2023-05-20T19:15:06;100410.78;;;15.21;74.03
77410;BME280;66481;51.332;22.804;2023-05-20T19:19:07;100413.63;;;14.97;75.87
77410;BME280;66481;51.332;22.804;2023-05-20T19:23:08;100418.25;;;14.84;75.80
77410;BME280;66481;51.332;22.804;2023-05-20T19:27:10;100409.66;;;14.80;74.98
77410;BME280;66481;51.332;22.804;2023-05-20T19:31:11;100416.69;;;14.70;74.62
77410;BME280;66481;51.332;22.804;2023-05-20T19:35:15;100412.94;;;14.61;74.14
77410;BME280;66481;51.332;22.804;2023-05-20T19:39:18;100414.06;;;14.59;72.83
77410;BME280;66481;51.332;22.804;2023-05-20T19:43:22;100405.06;;;14.48;72.90
77410;BME280;66481;51.332;22.804;2023-05-20T19:47:24;100417.03;;;14.43;72.83
77410;BME280;66481;51.332;22.804;2023-05-20T19:51:25;100420.31;;;14.35;73.49
77410;BME280;66481;51.332;22.804;2023-05-20T19:55:27;100415.72;;;14.26;74.33
77410;BME280;66481;51.332;22.804;2023-05-20T19:59:28;100414.00;;;14.25;73.39
77410;BME280;66481;51.332;22.804;2023-05-20T20:03:29;100407.81;;;14.13;72.63
77410;BME280;66481;51.332;22.804;2023-05-20T20:07:30;100424.38;;;14.05;72.56
77410;BME280;66481;51.332;22.804;2023-05-20T20:11:32;100429.16;;;13.89;72.86
77410;BME280;66481;51.332;22.804;2023-05-20T20:15:33;100433.94;;;14.08;70.80
77410;BME280;66481;51.332;22.804;2023-05-20T20:19:35;100432.13;;;14.08;71.52
77410;BME280;66481;51.332;22.804;2023-05-20T20:23:38;100438.63;;;13.93;72.14
77410;BME280;66481;51.332;22.804;2023-05-20T20:27:40;100445.22;;;13.76;72.79
77410;BME280;66481;51.332;22.804;2023-05-20T20:31:43;100442.25;;;13.57;74.78
77410;BME280;66481;51.332;22.804;2023-05-20T20:35:45;100432.25;;;13.36;76.73
77410;BME280;66481;51.332;22.804;2023-05-20T20:39:46;100439.53;;;13.45;74.82
77410;BME280;66481;51.332;22.804;2023-05-20T20:43:48;100428.56;;;13.50;73.04
77410;BME280;66481;51.332;22.804;2023-05-20T20:47:50;100420.69;;;13.48;72.95
77410;BME280;66481;51.332;22.804;2023-05-20T20:51:57;100425.50;;;13.43;73.51
77410;BME280;66481;51.332;22.804;2023-05-20T20:55:59;100427.19;;;13.44;73.99
77410;BME280;66481;51.332;22.804;2023-05-20T21:00:02;100424.88;;;13.40;73.00
77410;BME280;66481;51.332;22.804;2023-05-20T21:04:17;100421.16;;;13.42;72.11
77410;BME280;66481;51.332;22.804;2023-05-20T21:08:18;100430.72;;;13.45;71.40